This is the latest recevied weather packets stored in our database for station/object EA4URC-13. If no packets are shown the sender has not sent any weather packets the latest 10 day(s).
| Time | Temp. | Humidity | Pressure | Rain* | Wind** | Luminosity | Snow |
|---|---|---|---|---|---|---|---|
| 1777650246 | 18.89° C | 45% | 1009 hPa | - | - | - | - |
| 1777649346 | 17.78° C | 47% | 1009.3 hPa | - | - | - | - |
| 1777648446 | 18.89° C | 47% | 1008.7 hPa | - | - | - | - |
| 1777647546 | 18.89° C | 48% | 1009.1 hPa | - | - | - | - |
| 1777646646 | 19.44° C | 45% | 1009 hPa | - | - | - | - |
| 1777645746 | 19.44° C | 44% | 1009 hPa | - | - | - | - |
| 1777644845 | 20° C | 44% | 1008.9 hPa | - | - | - | - |
| 1777643945 | 19.44° C | 44% | 1009.1 hPa | - | - | - | - |
| 1777643045 | 18.33° C | 47% | 1009.8 hPa | - | - | - | - |
| 1777642145 | 18.33° C | 48% | 1009.9 hPa | - | - | - | - |
| 1777641245 | 20° C | 45% | 1009.1 hPa | - | - | - | - |
| 1777640345 | 18.89° C | 49% | 1009.8 hPa | - | - | - | - |
| 1777639444 | 17.22° C | 50% | 1010.7 hPa | - | - | - | - |
| 1777638544 | 17.78° C | 50% | 1010.5 hPa | - | - | - | - |
| 1777637644 | 18.33° C | 49% | 1010.1 hPa | - | - | - | - |
| 1777636744 | 18.89° C | 47% | 1009.9 hPa | - | - | - | - |
| 1777635844 | 18.89° C | 47% | 1009.9 hPa | - | - | - | - |
| 1777634944 | 19.44° C | 46% | 1009.4 hPa | - | - | - | - |
| 1777634044 | 18.89° C | 48% | 1010 hPa | - | - | - | - |
| 1777633144 | 17.78° C | 48% | 1010.4 hPa | - | - | - | - |
| 1777632244 | 18.33° C | 48% | 1010.1 hPa | - | - | - | - |
| 1777631338 | 16.67° C | 51% | 1011.1 hPa | - | - | - | - |
| 1777630465 | 15° C | 57% | 1011.8 hPa | - | - | - | - |
| 1777630438 | 15° C | 57% | 1011.8 hPa | - | - | - | - |
| 1777629538 | 16.67° C | 53% | 1011.3 hPa | - | - | - | - |
* Rain since midnight (hover to see other rain measurements)
** Current wind speed in m/s (hover to see current wind gust speed)